createdAt,value
2018-08-18T00:00:19.480Z,80.30
2018-08-18T00:02:48.312Z,79.90
2018-08-18T00:05:17.909Z,79.50
2018-08-18T00:07:46.909Z,79.30
2018-08-18T00:10:18.263Z,79.20
2018-08-18T00:12:47.003Z,79.30
2018-08-18T00:15:15.508Z,79.60
2018-08-18T00:17:44.382Z,79.30
2018-08-18T00:20:17.796Z,78.90
2018-08-18T00:22:46.917Z,78.70
2018-08-18T00:25:16.103Z,78.20
2018-08-18T00:27:44.717Z,78.10
2018-08-18T00:30:18.908Z,77.80
2018-08-18T00:32:47.403Z,77.50
2018-08-18T00:35:15.949Z,77.50
2018-08-18T00:37:44.531Z,77.80
2018-08-18T00:40:13.140Z,78.10
2018-08-18T00:42:41.690Z,77.90
2018-08-18T00:45:11.996Z,78.50
2018-08-18T00:47:41.138Z,79.30
2018-08-18T00:50:11.284Z,79.70
2018-08-18T00:52:39.959Z,79.50
2018-08-18T00:55:08.508Z,79.50
2018-08-18T00:57:36.995Z,79.40
2018-08-18T01:00:06.253Z,78.90
2018-08-18T01:02:35.073Z,78.70
2018-08-18T01:05:04.376Z,78.80
2018-08-18T01:07:33.272Z,79.00
2018-08-18T01:10:02.287Z,79.40
2018-08-18T01:12:30.923Z,79.30
2018-08-18T01:14:59.633Z,79.80
2018-08-18T01:17:28.289Z,80.00
2018-08-18T01:19:57.946Z,80.10
2018-08-18T01:22:26.619Z,80.20
2018-08-18T01:24:55.555Z,80.30
2018-08-18T01:27:24.043Z,80.50
2018-08-18T01:30:04.236Z,80.60
2018-08-18T01:32:33.411Z,80.70
2018-08-18T01:35:01.931Z,80.70
2018-08-18T01:37:31.847Z,80.90
2018-08-18T01:40:00.493Z,80.80
2018-08-18T01:42:31.865Z,81.10
2018-08-18T01:45:00.355Z,81.20
2018-08-18T01:47:28.919Z,80.40
2018-08-18T01:49:59.159Z,81.10
2018-08-18T01:52:27.588Z,81.60
2018-08-18T01:54:56.064Z,81.70
2018-08-18T01:57:24.572Z,82.70
2018-08-18T01:59:53.027Z,81.80
2018-08-18T02:02:26.409Z,81.90
2018-08-18T02:04:55.918Z,81.90
2018-08-18T02:07:28.089Z,84.40
2018-08-18T02:09:57.048Z,84.20
2018-08-18T02:12:26.319Z,84.40
2018-08-18T02:14:55.154Z,85.10
2018-08-18T02:17:27.567Z,84.90
2018-08-18T02:19:57.129Z,84.90
2018-08-18T02:22:26.364Z,84.30
2018-08-18T02:24:54.855Z,84.00
2018-08-18T02:27:23.731Z,83.70
2018-08-18T02:30:04.120Z,83.10
2018-08-18T02:32:34.547Z,83.00
2018-08-18T02:35:03.185Z,83.40
2018-08-18T02:37:31.812Z,83.00
2018-08-18T02:40:00.354Z,82.50
2018-08-18T02:42:29.301Z,82.50
2018-08-18T02:44:57.779Z,82.40
2018-08-18T02:47:26.360Z,82.70
2018-08-18T02:49:55.612Z,82.70
2018-08-18T02:52:25.927Z,82.50
2018-08-18T02:54:56.124Z,82.20
2018-08-18T02:57:32.496Z,81.80
2018-08-18T03:00:03.043Z,80.80
2018-08-18T03:02:31.604Z,81.30
2018-08-18T03:05:00.156Z,81.80
2018-08-18T03:07:38.952Z,82.70
2018-08-18T03:10:15.732Z,83.40
2018-08-18T03:12:44.528Z,83.20
2018-08-18T03:16:22.184Z,83.70
2018-08-18T03:18:52.712Z,83.60
2018-08-18T03:21:31.386Z,83.40
2018-08-18T03:24:14.463Z,83.40
2018-08-18T03:26:46.865Z,83.60
2018-08-18T03:29:16.000Z,83.40
2018-08-18T03:31:45.080Z,83.20
2018-08-18T03:34:14.349Z,82.40
2018-08-18T03:36:44.646Z,81.90
2018-08-18T03:39:23.514Z,81.80
2018-08-18T03:41:53.492Z,81.60
2018-08-18T03:44:21.996Z,82.30
2018-08-18T03:46:50.568Z,82.40
2018-08-18T03:49:19.648Z,82.50
2018-08-18T03:51:50.340Z,82.50
2018-08-18T03:54:18.952Z,82.60
2018-08-18T03:56:48.161Z,82.80
2018-08-18T03:59:17.269Z,82.60
2018-08-18T04:01:59.141Z,82.30
2018-08-18T04:04:28.884Z,82.10
2018-08-18T04:06:58.661Z,82.00
2018-08-18T04:09:28.196Z,81.80
2018-08-18T04:11:58.113Z,81.50
2018-08-18T04:14:30.307Z,81.10
2018-08-18T04:16:58.983Z,80.60
2018-08-18T04:19:27.549Z,80.60
2018-08-18T04:21:56.836Z,80.60
2018-08-18T04:24:33.268Z,80.50
2018-08-18T04:27:02.628Z,80.30
2018-08-18T04:29:31.839Z,80.30
2018-08-18T04:32:01.132Z,80.10
2018-08-18T04:34:29.753Z,80.20
2018-08-18T04:36:58.006Z,80.50
2018-08-18T04:39:26.791Z,80.40
2018-08-18T04:41:55.385Z,80.60
2018-08-18T04:44:24.044Z,80.60
2018-08-18T04:46:52.504Z,80.50
2018-08-18T04:49:20.984Z,80.40
2018-08-18T04:51:49.924Z,80.40
2018-08-18T04:54:18.436Z,80.60
2018-08-18T04:56:46.921Z,80.40
2018-08-18T04:59:15.666Z,80.70
2018-08-18T05:01:44.405Z,81.40
2018-08-18T05:04:13.284Z,80.50
2018-08-18T05:06:43.039Z,80.90
2018-08-18T05:09:13.188Z,81.00
2018-08-18T05:11:41.918Z,81.00
2018-08-18T05:14:11.178Z,81.10
2018-08-18T05:16:39.689Z,80.90
2018-08-18T05:19:08.223Z,81.10
2018-08-18T05:21:36.997Z,80.30
2018-08-18T05:24:20.132Z,79.50
2018-08-18T05:26:49.504Z,79.00
2018-08-18T05:29:18.321Z,77.70
2018-08-18T05:31:46.852Z,77.70
2018-08-18T05:34:16.071Z,77.90
2018-08-18T05:36:45.312Z,77.20
2018-08-18T05:39:14.404Z,75.70
2018-08-18T05:41:42.923Z,75.20
2018-08-18T05:44:11.756Z,74.40
2018-08-18T05:46:40.256Z,73.90
2018-08-18T05:49:12.994Z,73.10
2018-08-18T05:51:43.180Z,72.60
2018-08-18T05:54:13.920Z,72.40
2018-08-18T05:56:43.424Z,72.40
2018-08-18T05:59:11.922Z,71.90
2018-08-18T06:01:41.467Z,71.50
2018-08-18T06:04:13.521Z,71.30
2018-08-18T06:06:42.781Z,71.00
2018-08-18T06:09:12.471Z,70.90
2018-08-18T06:11:41.033Z,70.00
2018-08-18T06:14:10.468Z,70.00
2018-08-18T06:16:39.307Z,68.80
2018-08-18T06:19:07.994Z,68.30
2018-08-18T06:21:36.471Z,68.70
2018-08-18T06:24:05.500Z,68.70
2018-08-18T06:26:34.453Z,68.40
2018-08-18T06:29:03.262Z,68.00
2018-08-18T06:31:32.082Z,67.50
2018-08-18T06:34:00.681Z,66.60
2018-08-18T06:36:29.530Z,65.90
2018-08-18T06:38:58.612Z,64.00
2018-08-18T06:41:27.107Z,63.30
2018-08-18T06:43:55.556Z,62.90
2018-08-18T06:46:24.169Z,62.10
2018-08-18T06:48:52.720Z,62.30
2018-08-18T06:51:21.323Z,62.10
2018-08-18T06:53:49.864Z,61.60
2018-08-18T06:56:18.347Z,62.10
2018-08-18T06:58:47.570Z,61.10
2018-08-18T07:01:16.038Z,61.60
2018-08-18T07:03:46.520Z,61.20
2018-08-18T07:06:16.131Z,61.70
2018-08-18T07:08:49.823Z,61.30
2018-08-18T07:11:18.365Z,61.40
2018-08-18T07:13:47.541Z,60.60
2018-08-18T07:16:16.079Z,60.90
2018-08-18T07:18:44.679Z,60.70
2018-08-18T07:21:13.436Z,59.80
2018-08-18T07:23:41.633Z,58.80
2018-08-18T07:26:10.139Z,57.80
2018-08-18T07:28:38.753Z,57.20
2018-08-18T07:31:07.427Z,56.20
2018-08-18T07:33:35.912Z,56.10
2018-08-18T07:36:04.522Z,56.00
2018-08-18T07:38:33.039Z,56.40
2018-08-18T07:41:01.864Z,55.10
2018-08-18T07:43:31.799Z,55.60
2018-08-18T07:46:03.519Z,54.70
2018-08-18T07:48:32.053Z,53.90
2018-08-18T07:51:00.908Z,52.80
2018-08-18T07:53:30.251Z,52.40
2018-08-18T07:55:58.945Z,52.20
2018-08-18T07:58:27.402Z,53.10
2018-08-18T08:00:58.273Z,51.80
2018-08-18T08:03:27.196Z,51.90
2018-08-18T08:05:55.683Z,51.40
2018-08-18T08:08:24.333Z,52.50
2018-08-18T08:10:58.908Z,51.30
2018-08-18T08:13:27.574Z,51.60
2018-08-18T08:15:55.812Z,52.00
2018-08-18T08:18:24.386Z,51.70
2018-08-18T08:20:53.063Z,50.60
2018-08-18T08:23:21.365Z,49.00
2018-08-18T08:25:50.180Z,49.50
2018-08-18T08:28:18.708Z,49.90
2018-08-18T08:30:47.583Z,50.60
2018-08-18T08:33:30.448Z,50.50
2018-08-18T08:35:58.923Z,51.00
2018-08-18T08:38:32.814Z,51.10
2018-08-18T08:41:01.354Z,50.80
2018-08-18T08:43:35.400Z,50.60
2018-08-18T08:46:03.931Z,50.30
2018-08-18T08:48:32.528Z,51.00
2018-08-18T08:51:01.028Z,50.50
2018-08-18T08:53:30.019Z,50.20
2018-08-18T08:55:58.608Z,50.40
2018-08-18T08:58:27.135Z,49.00
2018-08-18T09:00:56.513Z,48.70
2018-08-18T09:03:24.980Z,49.20
2018-08-18T09:05:53.507Z,49.60
2018-08-18T09:08:22.118Z,48.70
2018-08-18T09:10:50.636Z,48.30
2018-08-18T09:13:19.112Z,48.30
2018-08-18T09:15:47.858Z,47.80
2018-08-18T09:18:16.440Z,46.80
2018-08-18T09:20:46.883Z,46.70
2018-08-18T09:23:15.476Z,47.50
2018-08-18T09:25:44.024Z,47.00
2018-08-18T09:28:12.557Z,47.50
2018-08-18T09:30:41.186Z,46.80
2018-08-18T09:33:09.757Z,44.10
2018-08-18T09:35:53.293Z,42.80
2018-08-18T09:38:22.180Z,42.70
2018-08-18T09:40:50.696Z,43.10
2018-08-18T09:43:25.359Z,43.50
2018-08-18T09:45:55.367Z,42.70
2018-08-18T09:48:24.823Z,42.70
2018-08-18T09:50:54.287Z,40.80
2018-08-18T09:53:23.113Z,39.90
2018-08-18T09:55:51.606Z,40.80
2018-08-18T09:58:20.754Z,40.40
2018-08-18T10:00:49.318Z,40.10
2018-08-18T10:03:18.164Z,40.40
2018-08-18T10:05:47.212Z,41.00
2018-08-18T10:08:15.689Z,40.20
2018-08-18T10:10:44.202Z,39.70
2018-08-18T10:13:12.676Z,39.80
2018-08-18T10:15:40.924Z,40.00
2018-08-18T10:18:10.508Z,39.20
2018-08-18T10:20:44.235Z,39.10
2018-08-18T10:23:12.739Z,39.70
2018-08-18T10:25:41.479Z,40.40
2018-08-18T10:28:10.462Z,40.50
2018-08-18T10:30:39.053Z,41.50
2018-08-18T10:33:07.617Z,40.40
2018-08-18T10:35:35.876Z,39.90
2018-08-18T10:38:06.136Z,39.00
2018-08-18T10:40:35.371Z,38.70
2018-08-18T10:43:03.903Z,37.10
2018-08-18T10:45:32.460Z,34.60
2018-08-18T10:48:00.992Z,33.50
2018-08-18T10:51:41.613Z,32.40
2018-08-18T10:54:10.276Z,31.80
2018-08-18T10:56:38.857Z,31.90
2018-08-18T10:59:20.531Z,32.80
2018-08-18T11:02:05.281Z,33.10
2018-08-18T11:04:35.786Z,30.60
2018-08-18T11:07:04.996Z,30.80
2018-08-18T11:09:33.897Z,30.60
2018-08-18T11:12:03.000Z,30.00
2018-08-18T11:14:31.467Z,29.70
2018-08-18T11:16:59.925Z,31.10
2018-08-18T11:19:28.427Z,30.50
2018-08-18T11:22:07.869Z,29.00
2018-08-18T11:24:36.355Z,28.80
2018-08-18T11:27:05.243Z,27.30
2018-08-18T11:29:33.744Z,28.00
2018-08-18T11:32:02.439Z,26.80
2018-08-18T11:34:31.004Z,26.60
2018-08-18T11:37:05.469Z,26.90
2018-08-18T11:39:33.976Z,26.60
2018-08-18T11:42:02.205Z,26.40
2018-08-18T11:44:30.986Z,26.50
2018-08-18T11:47:00.493Z,26.20
2018-08-18T11:49:29.160Z,26.90
2018-08-18T11:51:57.984Z,26.80
2018-08-18T11:54:26.629Z,26.60
2018-08-18T11:56:55.703Z,26.10
2018-08-18T11:59:24.183Z,26.30
2018-08-18T12:01:55.279Z,25.80
2018-08-18T12:04:24.492Z,26.30
2018-08-18T12:06:56.596Z,27.30
2018-08-18T12:09:25.112Z,26.10
2018-08-18T12:11:54.225Z,25.00
2018-08-18T12:14:22.887Z,24.00
2018-08-18T12:16:52.220Z,23.00
2018-08-18T12:19:21.909Z,22.60
2018-08-18T12:21:50.929Z,22.20
2018-08-18T12:24:20.656Z,21.60
2018-08-18T12:27:00.484Z,22.00
2018-08-18T12:29:30.805Z,21.60
2018-08-18T12:32:00.009Z,21.30
2018-08-18T12:34:28.506Z,21.40
2018-08-18T12:36:57.223Z,20.00
2018-08-18T12:39:25.694Z,21.00
2018-08-18T12:41:54.588Z,21.70
2018-08-18T12:44:31.227Z,23.00
2018-08-18T12:47:02.801Z,24.30
2018-08-18T12:49:31.893Z,25.60
2018-08-18T12:52:00.518Z,26.40
2018-08-18T12:54:29.039Z,26.30
2018-08-18T12:56:57.570Z,27.00
2018-08-18T12:59:26.016Z,27.40
2018-08-18T13:01:54.488Z,27.90
2018-08-18T13:04:23.031Z,27.40
2018-08-18T13:06:53.225Z,28.40
2018-08-18T13:09:23.080Z,28.60
2018-08-18T13:11:53.340Z,29.20
2018-08-18T13:14:26.468Z,29.60
2018-08-18T13:16:55.076Z,29.80
2018-08-18T13:19:26.268Z,30.60
2018-08-18T13:21:54.774Z,30.90
2018-08-18T13:24:23.660Z,30.70
2018-08-18T13:26:52.155Z,29.90
2018-08-18T13:29:20.786Z,28.30
2018-08-18T13:31:49.325Z,27.70
2018-08-18T13:34:18.613Z,27.50
2018-08-18T13:36:47.853Z,26.90
2018-08-18T13:39:17.483Z,27.10
2018-08-18T13:41:46.883Z,27.20
2018-08-18T13:44:23.816Z,28.70
2018-08-18T13:46:52.798Z,28.50
2018-08-18T13:49:23.938Z,30.00
2018-08-18T13:51:52.503Z,29.40
2018-08-18T13:54:21.067Z,28.40
2018-08-18T13:56:49.688Z,27.10
2018-08-18T13:59:39.854Z,27.00
2018-08-18T14:02:08.833Z,26.70
2018-08-18T14:04:39.796Z,26.40
2018-08-18T14:07:08.446Z,25.90
2018-08-18T14:09:36.928Z,26.30
2018-08-18T14:12:10.969Z,26.00
2018-08-18T14:14:39.451Z,26.80
2018-08-18T14:17:09.176Z,26.20
2018-08-18T14:19:38.045Z,26.10
2018-08-18T14:22:08.568Z,26.20
2018-08-18T14:24:38.133Z,26.40
2018-08-18T14:27:15.869Z,24.70
2018-08-18T14:29:44.360Z,25.50
2018-08-18T14:32:18.075Z,25.80
2018-08-18T14:35:08.324Z,26.10
2018-08-18T14:37:40.472Z,25.80
2018-08-18T14:40:14.336Z,25.70
2018-08-18T14:42:43.017Z,25.20
2018-08-18T14:45:15.197Z,26.70
2018-08-18T14:47:44.008Z,27.60
2018-08-18T14:50:32.206Z,28.00
2018-08-18T14:53:04.528Z,27.90
2018-08-18T14:55:33.170Z,27.00
2018-08-18T14:58:02.763Z,27.50
2018-08-18T15:00:31.638Z,26.80
2018-08-18T15:03:00.254Z,26.30
2018-08-18T15:05:29.763Z,26.20
2018-08-18T15:07:59.531Z,26.40
2018-08-18T15:10:39.693Z,25.00
2018-08-18T15:13:09.268Z,24.50
2018-08-18T15:15:37.973Z,23.10
2018-08-18T15:18:13.779Z,22.50
2018-08-18T15:20:42.804Z,23.70
2018-08-18T15:23:12.282Z,23.70
2018-08-18T15:25:42.024Z,23.30
2018-08-18T15:28:11.732Z,23.30
2018-08-18T15:30:42.595Z,22.50
2018-08-18T15:33:14.423Z,23.30
2018-08-18T15:35:42.684Z,23.90
2018-08-18T15:38:11.636Z,24.30
2018-08-18T15:40:40.488Z,23.70
2018-08-18T15:43:09.068Z,23.80
2018-08-18T15:46:01.117Z,24.20
2018-08-18T15:48:29.516Z,23.70
2018-08-18T15:50:58.080Z,23.70
2018-08-18T15:54:17.587Z,23.00
2018-08-18T15:56:46.878Z,23.30
2018-08-18T15:59:15.986Z,24.80
2018-08-18T16:01:44.187Z,25.70
2018-08-18T16:04:12.716Z,26.60
2018-08-18T16:06:41.265Z,26.50
2018-08-18T16:09:10.551Z,25.70
2018-08-18T16:11:39.359Z,25.50
2018-08-18T16:14:07.985Z,26.70
2018-08-18T16:22:19.836Z,27.20
2018-08-18T16:24:48.404Z,28.50
2018-08-18T16:27:16.944Z,28.00
2018-08-18T16:29:45.471Z,27.90
2018-08-18T16:32:27.928Z,29.10
2018-08-18T16:35:02.372Z,30.30
2018-08-18T16:37:32.087Z,30.80
2018-08-18T16:40:00.663Z,31.60
2018-08-18T16:45:11.406Z,32.30
2018-08-18T16:47:44.106Z,32.70
2018-08-18T16:50:12.586Z,33.10
2018-08-18T16:52:41.090Z,33.40
2018-08-18T16:55:09.628Z,33.10
2018-08-18T16:57:38.143Z,32.70
2018-08-18T17:00:06.724Z,33.00
2018-08-18T17:02:36.372Z,33.70
2018-08-18T17:05:06.434Z,32.20
2018-08-18T17:07:34.909Z,32.20
2018-08-18T17:10:03.530Z,31.90
2018-08-18T17:12:32.218Z,31.50
2018-08-18T17:15:00.765Z,31.50
2018-08-18T17:17:29.287Z,31.50
2018-08-18T17:19:57.832Z,31.90
2018-08-18T17:22:26.097Z,33.10
2018-08-18T17:24:54.695Z,33.30
2018-08-18T17:27:23.213Z,33.60
2018-08-18T17:29:52.601Z,34.10
2018-08-18T17:32:21.167Z,34.70
2018-08-18T17:34:49.982Z,35.10
2018-08-18T17:37:18.526Z,36.00
2018-08-18T17:39:47.340Z,36.30
2018-08-18T17:42:15.975Z,36.20
2018-08-18T17:44:44.567Z,36.70
2018-08-18T17:47:13.128Z,37.10
2018-08-18T17:49:48.003Z,37.00
2018-08-18T17:52:16.567Z,37.20
2018-08-18T17:54:59.140Z,37.60
2018-08-18T17:57:28.107Z,37.70
2018-08-18T17:59:56.676Z,37.80
2018-08-18T18:02:25.750Z,38.20
2018-08-18T18:04:59.959Z,38.20
2018-08-18T18:07:28.560Z,38.60
2018-08-18T18:09:57.128Z,38.80
2018-08-18T18:12:26.916Z,38.90
2018-08-18T18:14:56.944Z,39.20
2018-08-18T18:17:25.927Z,39.50
2018-08-18T18:19:57.159Z,39.80
2018-08-18T18:22:34.657Z,40.30
2018-08-18T18:25:04.033Z,40.60
2018-08-18T18:27:32.589Z,42.20
2018-08-18T18:30:01.076Z,41.50
2018-08-18T18:32:29.707Z,41.80
2018-08-18T18:34:58.245Z,44.00
2018-08-18T18:37:27.587Z,41.60
2018-08-18T18:40:01.535Z,43.00
2018-08-18T18:42:30.091Z,45.20
2018-08-18T18:44:59.077Z,46.40
2018-08-18T18:47:28.182Z,47.10
2018-08-18T18:49:56.795Z,46.90
2018-08-18T18:52:25.035Z,47.60
2018-08-18T18:54:56.583Z,48.60
2018-08-18T18:57:25.423Z,48.50
2018-08-18T18:59:57.314Z,48.40
2018-08-18T19:02:43.780Z,49.90
2018-08-18T19:05:19.486Z,51.20
2018-08-18T19:07:53.766Z,51.80
2018-08-18T19:10:22.952Z,52.30
2018-08-18T19:12:52.418Z,52.10
2018-08-18T19:15:21.319Z,52.70
2018-08-18T19:17:49.932Z,53.60
2018-08-18T19:20:24.188Z,53.30
2018-08-18T19:22:58.825Z,54.10
2018-08-18T19:25:27.042Z,53.60
2018-08-18T19:27:55.651Z,54.50
2018-08-18T19:30:24.354Z,54.70
2018-08-18T19:32:54.597Z,54.50
2018-08-18T19:35:31.450Z,55.30
2018-08-18T19:38:03.299Z,55.50
2018-08-18T19:40:31.818Z,55.30
2018-08-18T19:43:00.448Z,55.10
2018-08-18T19:45:28.671Z,55.50
2018-08-18T19:47:57.139Z,56.20
2018-08-18T19:50:25.613Z,55.90
2018-08-18T19:53:02.371Z,56.10
2018-08-18T19:55:31.105Z,55.30
2018-08-18T19:57:59.603Z,55.50
2018-08-18T20:00:30.491Z,56.40
2018-08-18T20:03:05.915Z,56.40
2018-08-18T20:05:34.250Z,56.10
2018-08-18T20:08:02.870Z,57.30
2018-08-18T20:10:35.152Z,56.30
2018-08-18T20:13:03.641Z,57.30
2018-08-18T20:15:32.285Z,57.00
2018-08-18T20:18:00.942Z,56.90
2018-08-18T20:20:29.490Z,56.80
2018-08-18T20:22:57.989Z,56.60
2018-08-18T20:25:26.540Z,58.00
2018-08-18T20:27:54.980Z,57.20
2018-08-18T20:30:23.520Z,56.70
2018-08-18T20:32:52.020Z,57.10
2018-08-18T20:35:20.504Z,56.80
2018-08-18T20:37:49.041Z,56.70
2018-08-18T20:40:17.519Z,58.50
2018-08-18T20:42:45.995Z,59.40
2018-08-18T20:45:14.538Z,58.90
2018-08-18T20:47:44.649Z,58.80
2018-08-18T20:50:13.447Z,59.70
2018-08-18T20:52:41.917Z,59.20
2018-08-18T20:55:10.786Z,59.40
2018-08-18T20:57:39.380Z,59.70
2018-08-18T21:00:09.570Z,59.90
2018-08-18T21:02:39.020Z,60.20
2018-08-18T21:05:09.605Z,60.80
2018-08-18T21:07:38.193Z,61.80
2018-08-18T21:10:11.555Z,62.20
2018-08-18T21:12:45.211Z,62.80
2018-08-18T21:15:14.683Z,62.30
2018-08-18T21:17:43.140Z,61.60
2018-08-18T21:20:14.478Z,62.70
2018-08-18T21:22:43.358Z,62.70
2018-08-18T21:25:13.104Z,63.70
2018-08-18T21:27:42.534Z,63.70
2018-08-18T21:30:13.852Z,63.90
2018-08-18T21:32:42.372Z,64.20
2018-08-18T21:35:10.868Z,63.90
2018-08-18T21:37:39.728Z,64.80
2018-08-18T21:40:09.063Z,64.70
2018-08-18T21:42:37.531Z,64.80
2018-08-18T21:45:09.162Z,65.10
2018-08-18T21:47:37.369Z,65.20
2018-08-18T21:50:06.350Z,65.90
2018-08-18T21:52:34.912Z,66.50
2018-08-18T21:55:03.483Z,67.30
2018-08-18T21:57:38.196Z,67.30
2018-08-18T22:00:07.059Z,68.50
2018-08-18T22:02:41.456Z,69.30
2018-08-18T22:05:13.684Z,69.90
2018-08-18T22:07:47.590Z,69.20
2018-08-18T22:10:16.075Z,69.90
2018-08-18T22:12:44.645Z,70.30
2018-08-18T22:15:20.212Z,69.70
2018-08-18T22:17:49.920Z,70.20
2018-08-18T22:20:20.057Z,70.50
2018-08-18T22:22:48.677Z,70.60
2018-08-18T22:25:17.940Z,71.50
2018-08-18T22:27:46.500Z,72.30
2018-08-18T22:30:17.159Z,71.50
2018-08-18T22:32:47.221Z,71.90
2018-08-18T22:35:16.098Z,70.80
2018-08-18T22:37:44.627Z,70.90
2018-08-18T22:40:13.180Z,71.70
2018-08-18T22:42:41.767Z,71.60
2018-08-18T22:45:21.643Z,72.10
2018-08-18T22:47:50.152Z,71.90
2018-08-18T22:50:19.272Z,72.60
2018-08-18T22:52:50.584Z,72.80
2018-08-18T22:55:19.436Z,73.00
2018-08-18T22:58:08.416Z,73.80
2018-08-18T23:00:41.077Z,74.50
2018-08-18T23:03:09.964Z,75.00
2018-08-18T23:05:38.836Z,75.00
2018-08-18T23:08:07.347Z,74.90
2018-08-18T23:10:35.836Z,75.40
2018-08-18T23:13:04.470Z,75.60
2018-08-18T23:15:33.057Z,75.70
2018-08-18T23:18:01.616Z,75.70
2018-08-18T23:20:30.298Z,75.30
2018-08-18T23:23:00.040Z,74.70
2018-08-18T23:25:30.620Z,74.40
2018-08-18T23:27:59.932Z,74.90
2018-08-18T23:30:36.847Z,75.50
2018-08-18T23:33:07.020Z,75.90
2018-08-18T23:35:35.963Z,75.70
2018-08-18T23:38:04.636Z,76.20
2018-08-18T23:40:33.173Z,77.00
2018-08-18T23:43:01.725Z,76.00
2018-08-18T23:45:36.695Z,76.30
2018-08-18T23:48:07.072Z,76.10
2018-08-18T23:50:36.583Z,75.70
2018-08-18T23:53:07.856Z,75.90
2018-08-18T23:55:44.958Z,76.30
2018-08-18T23:58:13.675Z,77.40
